sensor_id;sensor_type;location;lat;lon;timestamp;P1;durP1;ratioP1;P2;durP2;ratioP2
28431;SDS011;15664;51.302;7.744;2022-08-14T00:00:36;10.27;;;5.93;;
28431;SDS011;15664;51.302;7.744;2022-08-14T00:03:02;11.20;;;6.07;;
28431;SDS011;15664;51.302;7.744;2022-08-14T00:05:27;14.87;;;6.73;;
28431;SDS011;15664;51.302;7.744;2022-08-14T00:07:52;10.97;;;6.23;;
28431;SDS011;15664;51.302;7.744;2022-08-14T00:10:19;10.50;;;6.30;;
28431;SDS011;15664;51.302;7.744;2022-08-14T00:12:46;10.82;;;5.97;;
28431;SDS011;15664;51.302;7.744;2022-08-14T00:15:13;11.48;;;6.60;;
28431;SDS011;15664;51.302;7.744;2022-08-14T00:17:39;10.80;;;6.53;;
28431;SDS011;15664;51.302;7.744;2022-08-14T00:20:05;11.43;;;6.23;;
28431;SDS011;15664;51.302;7.744;2022-08-14T00:22:31;10.63;;;6.15;;
28431;SDS011;15664;51.302;7.744;2022-08-14T00:24:57;13.10;;;7.30;;
28431;SDS011;15664;51.302;7.744;2022-08-14T00:27:22;11.80;;;6.33;;
28431;SDS011;15664;51.302;7.744;2022-08-14T00:29:47;10.43;;;6.20;;
28431;SDS011;15664;51.302;7.744;2022-08-14T00:32:12;12.20;;;6.60;;
28431;SDS011;15664;51.302;7.744;2022-08-14T00:34:38;12.10;;;6.68;;
28431;SDS011;15664;51.302;7.744;2022-08-14T00:37:03;11.27;;;6.25;;
28431;SDS011;15664;51.302;7.744;2022-08-14T00:39:29;12.85;;;6.30;;
28431;SDS011;15664;51.302;7.744;2022-08-14T00:41:54;10.95;;;6.18;;
28431;SDS011;15664;51.302;7.744;2022-08-14T00:44:21;10.67;;;6.33;;
28431;SDS011;15664;51.302;7.744;2022-08-14T00:46:47;11.95;;;6.13;;
28431;SDS011;15664;51.302;7.744;2022-08-14T00:49:13;12.68;;;7.10;;
28431;SDS011;15664;51.302;7.744;2022-08-14T00:51:40;12.93;;;7.03;;
28431;SDS011;15664;51.302;7.744;2022-08-14T00:54:06;13.77;;;6.70;;
28431;SDS011;15664;51.302;7.744;2022-08-14T00:56:32;11.80;;;6.85;;
28431;SDS011;15664;51.302;7.744;2022-08-14T00:58:57;11.77;;;6.63;;
28431;SDS011;15664;51.302;7.744;2022-08-14T01:01:23;12.18;;;6.90;;
28431;SDS011;15664;51.302;7.744;2022-08-14T01:03:49;12.00;;;6.57;;
28431;SDS011;15664;51.302;7.744;2022-08-14T01:06:14;11.20;;;6.53;;
28431;SDS011;15664;51.302;7.744;2022-08-14T01:08:41;11.60;;;6.43;;
28431;SDS011;15664;51.302;7.744;2022-08-14T01:11:08;11.15;;;6.57;;
28431;SDS011;15664;51.302;7.744;2022-08-14T01:13:35;11.55;;;6.72;;
28431;SDS011;15664;51.302;7.744;2022-08-14T01:16:02;11.70;;;7.18;;
28431;SDS011;15664;51.302;7.744;2022-08-14T01:18:29;11.57;;;6.95;;
28431;SDS011;15664;51.302;7.744;2022-08-14T01:21:13;13.37;;;6.83;;
28431;SDS011;15664;51.302;7.744;2022-08-14T01:23:41;11.85;;;7.07;;
28431;SDS011;15664;51.302;7.744;2022-08-14T01:26:07;12.30;;;6.97;;
28431;SDS011;15664;51.302;7.744;2022-08-14T01:28:32;15.05;;;8.00;;
28431;SDS011;15664;51.302;7.744;2022-08-14T01:31:00;12.45;;;7.20;;
28431;SDS011;15664;51.302;7.744;2022-08-14T01:33:27;12.13;;;7.47;;
28431;SDS011;15664;51.302;7.744;2022-08-14T01:35:55;13.85;;;7.15;;
28431;SDS011;15664;51.302;7.744;2022-08-14T01:38:23;13.40;;;7.70;;
28431;SDS011;15664;51.302;7.744;2022-08-14T01:40:49;11.50;;;7.15;;
28431;SDS011;15664;51.302;7.744;2022-08-14T01:43:14;12.27;;;7.60;;
28431;SDS011;15664;51.302;7.744;2022-08-14T01:45:41;12.60;;;7.35;;
28431;SDS011;15664;51.302;7.744;2022-08-14T01:48:07;11.25;;;6.60;;
28431;SDS011;15664;51.302;7.744;2022-08-14T01:50:33;12.45;;;6.93;;
28431;SDS011;15664;51.302;7.744;2022-08-14T01:52:58;12.80;;;7.47;;
28431;SDS011;15664;51.302;7.744;2022-08-14T01:55:26;12.10;;;6.80;;
28431;SDS011;15664;51.302;7.744;2022-08-14T01:57:54;13.90;;;6.75;;
28431;SDS011;15664;51.302;7.744;2022-08-14T02:00:19;12.23;;;7.00;;
28431;SDS011;15664;51.302;7.744;2022-08-14T02:02:44;14.40;;;7.80;;
28431;SDS011;15664;51.302;7.744;2022-08-14T02:05:10;14.75;;;7.55;;
28431;SDS011;15664;51.302;7.744;2022-08-14T02:07:36;11.93;;;7.30;;
28431;SDS011;15664;51.302;7.744;2022-08-14T02:10:02;13.45;;;7.88;;
28431;SDS011;15664;51.302;7.744;2022-08-14T02:12:28;13.00;;;6.80;;
28431;SDS011;15664;51.302;7.744;2022-08-14T02:14:54;12.13;;;7.10;;
28431;SDS011;15664;51.302;7.744;2022-08-14T02:17:20;12.57;;;7.53;;
28431;SDS011;15664;51.302;7.744;2022-08-14T02:19:48;13.05;;;7.30;;
28431;SDS011;15664;51.302;7.744;2022-08-14T02:22:13;12.52;;;7.22;;
28431;SDS011;15664;51.302;7.744;2022-08-14T02:24:38;12.57;;;7.67;;
28431;SDS011;15664;51.302;7.744;2022-08-14T02:27:03;13.07;;;7.10;;
28431;SDS011;15664;51.302;7.744;2022-08-14T02:29:30;13.13;;;7.73;;
28431;SDS011;15664;51.302;7.744;2022-08-14T02:31:57;13.05;;;7.75;;
28431;SDS011;15664;51.302;7.744;2022-08-14T02:34:28;12.70;;;7.47;;
28431;SDS011;15664;51.302;7.744;2022-08-14T02:36:55;12.52;;;6.88;;
28431;SDS011;15664;51.302;7.744;2022-08-14T02:39:23;12.73;;;7.67;;
28431;SDS011;15664;51.302;7.744;2022-08-14T02:41:49;12.98;;;7.65;;
28431;SDS011;15664;51.302;7.744;2022-08-14T02:44:15;12.50;;;7.50;;
28431;SDS011;15664;51.302;7.744;2022-08-14T02:46:43;13.00;;;7.60;;
28431;SDS011;15664;51.302;7.744;2022-08-14T02:49:08;11.90;;;7.30;;
28431;SDS011;15664;51.302;7.744;2022-08-14T02:51:35;14.33;;;7.87;;
28431;SDS011;15664;51.302;7.744;2022-08-14T02:54:00;12.23;;;7.47;;
28431;SDS011;15664;51.302;7.744;2022-08-14T02:56:26;12.70;;;7.57;;
28431;SDS011;15664;51.302;7.744;2022-08-14T02:58:54;13.93;;;8.07;;
28431;SDS011;15664;51.302;7.744;2022-08-14T03:01:20;13.30;;;7.70;;
28431;SDS011;15664;51.302;7.744;2022-08-14T03:03:47;13.57;;;7.03;;
28431;SDS011;15664;51.302;7.744;2022-08-14T03:06:14;12.95;;;7.55;;
28431;SDS011;15664;51.302;7.744;2022-08-14T03:08:39;14.10;;;7.82;;
28431;SDS011;15664;51.302;7.744;2022-08-14T03:11:06;13.57;;;7.77;;
28431;SDS011;15664;51.302;7.744;2022-08-14T03:13:33;13.18;;;7.68;;
28431;SDS011;15664;51.302;7.744;2022-08-14T03:16:00;13.45;;;7.70;;
28431;SDS011;15664;51.302;7.744;2022-08-14T03:18:26;13.25;;;7.65;;
28431;SDS011;15664;51.302;7.744;2022-08-14T03:20:51;13.70;;;7.60;;
28431;SDS011;15664;51.302;7.744;2022-08-14T03:23:17;12.53;;;7.60;;
28431;SDS011;15664;51.302;7.744;2022-08-14T03:25:42;12.55;;;7.57;;
28431;SDS011;15664;51.302;7.744;2022-08-14T03:28:08;12.73;;;7.27;;
28431;SDS011;15664;51.302;7.744;2022-08-14T03:30:34;13.55;;;7.70;;
28431;SDS011;15664;51.302;7.744;2022-08-14T03:33:00;12.77;;;7.63;;
28431;SDS011;15664;51.302;7.744;2022-08-14T03:35:25;13.15;;;7.78;;
28431;SDS011;15664;51.302;7.744;2022-08-14T03:37:51;13.87;;;7.93;;
28431;SDS011;15664;51.302;7.744;2022-08-14T03:40:20;16.40;;;8.25;;
28431;SDS011;15664;51.302;7.744;2022-08-14T03:42:46;13.27;;;7.80;;
28431;SDS011;15664;51.302;7.744;2022-08-14T03:45:12;12.90;;;8.35;;
28431;SDS011;15664;51.302;7.744;2022-08-14T03:47:38;14.35;;;8.15;;
28431;SDS011;15664;51.302;7.744;2022-08-14T03:50:07;13.90;;;7.77;;
28431;SDS011;15664;51.302;7.744;2022-08-14T03:52:35;16.60;;;7.95;;
28431;SDS011;15664;51.302;7.744;2022-08-14T03:55:00;14.80;;;7.80;;
28431;SDS011;15664;51.302;7.744;2022-08-14T03:57:27;13.20;;;7.83;;
28431;SDS011;15664;51.302;7.744;2022-08-14T03:59:56;14.82;;;8.52;;
28431;SDS011;15664;51.302;7.744;2022-08-14T04:02:21;13.30;;;7.60;;
28431;SDS011;15664;51.302;7.744;2022-08-14T04:04:48;14.70;;;8.18;;
28431;SDS011;15664;51.302;7.744;2022-08-14T04:07:13;15.13;;;8.37;;
28431;SDS011;15664;51.302;7.744;2022-08-14T04:09:39;16.53;;;8.40;;
28431;SDS011;15664;51.302;7.744;2022-08-14T04:12:04;15.93;;;8.40;;
28431;SDS011;15664;51.302;7.744;2022-08-14T04:14:29;14.32;;;8.00;;
28431;SDS011;15664;51.302;7.744;2022-08-14T04:16:55;16.40;;;8.07;;
28431;SDS011;15664;51.302;7.744;2022-08-14T04:19:20;15.43;;;8.77;;
28431;SDS011;15664;51.302;7.744;2022-08-14T04:21:47;13.70;;;7.72;;
28431;SDS011;15664;51.302;7.744;2022-08-14T04:24:13;14.03;;;8.60;;
28431;SDS011;15664;51.302;7.744;2022-08-14T04:26:38;15.20;;;8.70;;
28431;SDS011;15664;51.302;7.744;2022-08-14T04:29:03;16.33;;;8.87;;
28431;SDS011;15664;51.302;7.744;2022-08-14T04:31:29;14.77;;;8.40;;
28431;SDS011;15664;51.302;7.744;2022-08-14T04:33:54;16.23;;;8.00;;
28431;SDS011;15664;51.302;7.744;2022-08-14T04:36:19;15.70;;;9.07;;
28431;SDS011;15664;51.302;7.744;2022-08-14T04:38:45;16.98;;;8.45;;
28431;SDS011;15664;51.302;7.744;2022-08-14T04:41:29;15.88;;;8.73;;
28431;SDS011;15664;51.302;7.744;2022-08-14T04:44:17;14.98;;;8.45;;
28431;SDS011;15664;51.302;7.744;2022-08-14T04:46:43;14.83;;;8.07;;
28431;SDS011;15664;51.302;7.744;2022-08-14T04:49:26;14.35;;;8.30;;
28431;SDS011;15664;51.302;7.744;2022-08-14T04:51:52;15.85;;;8.80;;
28431;SDS011;15664;51.302;7.744;2022-08-14T04:54:18;17.60;;;8.67;;
28431;SDS011;15664;51.302;7.744;2022-08-14T04:56:43;15.70;;;8.60;;
28431;SDS011;15664;51.302;7.744;2022-08-14T04:59:08;13.70;;;8.07;;
28431;SDS011;15664;51.302;7.744;2022-08-14T05:01:33;14.80;;;8.70;;
28431;SDS011;15664;51.302;7.744;2022-08-14T05:03:59;14.70;;;8.63;;
28431;SDS011;15664;51.302;7.744;2022-08-14T05:06:24;15.20;;;8.00;;
28431;SDS011;15664;51.302;7.744;2022-08-14T05:08:49;13.57;;;8.30;;
28431;SDS011;15664;51.302;7.744;2022-08-14T05:11:15;13.85;;;8.13;;
28431;SDS011;15664;51.302;7.744;2022-08-14T05:13:43;15.27;;;8.27;;
28431;SDS011;15664;51.302;7.744;2022-08-14T05:16:08;15.13;;;8.57;;
28431;SDS011;15664;51.302;7.744;2022-08-14T05:18:37;14.37;;;8.00;;
28431;SDS011;15664;51.302;7.744;2022-08-14T05:21:04;12.40;;;7.85;;
28431;SDS011;15664;51.302;7.744;2022-08-14T05:23:31;14.75;;;7.82;;
28431;SDS011;15664;51.302;7.744;2022-08-14T05:25:58;16.00;;;8.30;;
28431;SDS011;15664;51.302;7.744;2022-08-14T05:28:28;14.05;;;7.93;;
28431;SDS011;15664;51.302;7.744;2022-08-14T05:30:54;13.50;;;7.65;;
28431;SDS011;15664;51.302;7.744;2022-08-14T05:33:20;12.95;;;7.75;;
28431;SDS011;15664;51.302;7.744;2022-08-14T05:35:48;13.40;;;7.93;;
28431;SDS011;15664;51.302;7.744;2022-08-14T05:38:15;15.88;;;8.30;;
28431;SDS011;15664;51.302;7.744;2022-08-14T05:40:44;12.88;;;7.45;;
28431;SDS011;15664;51.302;7.744;2022-08-14T05:43:09;14.68;;;7.57;;
28431;SDS011;15664;51.302;7.744;2022-08-14T05:45:35;12.90;;;7.50;;
28431;SDS011;15664;51.302;7.744;2022-08-14T05:48:01;12.88;;;7.78;;
28431;SDS011;15664;51.302;7.744;2022-08-14T05:50:26;13.47;;;7.20;;
28431;SDS011;15664;51.302;7.744;2022-08-14T05:52:52;13.17;;;7.60;;
28431;SDS011;15664;51.302;7.744;2022-08-14T05:55:18;13.88;;;7.40;;
28431;SDS011;15664;51.302;7.744;2022-08-14T06:00:15;14.53;;;8.17;;
28431;SDS011;15664;51.302;7.744;2022-08-14T06:02:41;13.45;;;7.50;;
28431;SDS011;15664;51.302;7.744;2022-08-14T06:05:06;12.63;;;7.50;;
28431;SDS011;15664;51.302;7.744;2022-08-14T06:07:34;12.90;;;7.37;;
28431;SDS011;15664;51.302;7.744;2022-08-14T06:09:59;11.60;;;7.25;;
28431;SDS011;15664;51.302;7.744;2022-08-14T06:12:24;10.83;;;6.80;;
28431;SDS011;15664;51.302;7.744;2022-08-14T06:14:50;14.60;;;7.83;;
28431;SDS011;15664;51.302;7.744;2022-08-14T06:17:15;11.50;;;7.23;;
28431;SDS011;15664;51.302;7.744;2022-08-14T06:19:40;13.57;;;8.20;;
28431;SDS011;15664;51.302;7.744;2022-08-14T06:22:05;12.37;;;7.80;;
28431;SDS011;15664;51.302;7.744;2022-08-14T06:24:30;12.83;;;8.17;;
28431;SDS011;15664;51.302;7.744;2022-08-14T06:26:56;11.77;;;7.67;;
28431;SDS011;15664;51.302;7.744;2022-08-14T06:29:21;13.27;;;8.10;;
28431;SDS011;15664;51.302;7.744;2022-08-14T06:31:46;11.30;;;7.53;;
28431;SDS011;15664;51.302;7.744;2022-08-14T06:34:11;12.83;;;7.70;;
28431;SDS011;15664;51.302;7.744;2022-08-14T06:36:37;13.80;;;8.03;;
28431;SDS011;15664;51.302;7.744;2022-08-14T06:39:02;12.02;;;7.60;;
28431;SDS011;15664;51.302;7.744;2022-08-14T06:41:28;12.00;;;8.20;;
28431;SDS011;15664;51.302;7.744;2022-08-14T06:43:53;14.23;;;8.70;;
28431;SDS011;15664;51.302;7.744;2022-08-14T06:46:18;12.27;;;8.10;;
28431;SDS011;15664;51.302;7.744;2022-08-14T06:48:43;12.23;;;8.37;;
28431;SDS011;15664;51.302;7.744;2022-08-14T06:51:09;14.23;;;8.43;;
28431;SDS011;15664;51.302;7.744;2022-08-14T06:53:34;12.07;;;7.87;;
28431;SDS011;15664;51.302;7.744;2022-08-14T06:55:59;12.87;;;8.33;;
28431;SDS011;15664;51.302;7.744;2022-08-14T06:58:24;11.23;;;7.27;;
28431;SDS011;15664;51.302;7.744;2022-08-14T07:00:50;12.35;;;7.90;;
28431;SDS011;15664;51.302;7.744;2022-08-14T07:03:33;10.82;;;7.53;;
28431;SDS011;15664;51.302;7.744;2022-08-14T07:06:17;10.85;;;7.30;;
28431;SDS011;15664;51.302;7.744;2022-08-14T07:08:43;12.50;;;8.10;;
28431;SDS011;15664;51.302;7.744;2022-08-14T07:11:09;11.50;;;7.03;;
28431;SDS011;15664;51.302;7.744;2022-08-14T07:13:34;11.47;;;7.50;;
28431;SDS011;15664;51.302;7.744;2022-08-14T07:15:59;10.77;;;7.23;;
28431;SDS011;15664;51.302;7.744;2022-08-14T07:18:26;11.93;;;7.67;;
28431;SDS011;15664;51.302;7.744;2022-08-14T07:20:51;10.43;;;7.40;;
28431;SDS011;15664;51.302;7.744;2022-08-14T07:23:17;10.95;;;7.28;;
28431;SDS011;15664;51.302;7.744;2022-08-14T07:25:43;10.43;;;7.00;;
28431;SDS011;15664;51.302;7.744;2022-08-14T07:30:35;13.93;;;7.40;;
28431;SDS011;15664;51.302;7.744;2022-08-14T07:33:00;12.00;;;7.90;;
28431;SDS011;15664;51.302;7.744;2022-08-14T07:35:26;11.30;;;7.38;;
28431;SDS011;15664;51.302;7.744;2022-08-14T07:37:51;10.60;;;7.23;;
28431;SDS011;15664;51.302;7.744;2022-08-14T07:40:16;11.67;;;7.83;;
28431;SDS011;15664;51.302;7.744;2022-08-14T07:42:41;12.57;;;7.80;;
28431;SDS011;15664;51.302;7.744;2022-08-14T07:45:07;12.33;;;7.80;;
28431;SDS011;15664;51.302;7.744;2022-08-14T07:47:32;11.03;;;7.43;;
28431;SDS011;15664;51.302;7.744;2022-08-14T07:49:59;9.73;;;6.77;;
28431;SDS011;15664;51.302;7.744;2022-08-14T07:52:26;9.60;;;7.22;;
28431;SDS011;15664;51.302;7.744;2022-08-14T07:54:51;11.88;;;7.80;;
28431;SDS011;15664;51.302;7.744;2022-08-14T07:57:17;11.83;;;6.90;;
28431;SDS011;15664;51.302;7.744;2022-08-14T07:59:42;10.87;;;6.90;;
28431;SDS011;15664;51.302;7.744;2022-08-14T08:02:08;11.47;;;7.33;;
28431;SDS011;15664;51.302;7.744;2022-08-14T08:04:34;14.00;;;7.45;;
28431;SDS011;15664;51.302;7.744;2022-08-14T08:07:00;11.00;;;7.30;;
28431;SDS011;15664;51.302;7.744;2022-08-14T08:09:25;12.17;;;7.20;;
28431;SDS011;15664;51.302;7.744;2022-08-14T08:11:51;9.48;;;6.78;;
28431;SDS011;15664;51.302;7.744;2022-08-14T08:14:17;11.13;;;7.30;;
28431;SDS011;15664;51.302;7.744;2022-08-14T08:16:44;10.52;;;7.10;;
28431;SDS011;15664;51.302;7.744;2022-08-14T08:19:09;10.90;;;7.22;;
28431;SDS011;15664;51.302;7.744;2022-08-14T08:21:37;10.87;;;6.73;;
28431;SDS011;15664;51.302;7.744;2022-08-14T08:24:03;9.23;;;6.60;;
28431;SDS011;15664;51.302;7.744;2022-08-14T08:26:28;11.73;;;6.80;;
28431;SDS011;15664;51.302;7.744;2022-08-14T08:28:55;9.43;;;6.47;;
28431;SDS011;15664;51.302;7.744;2022-08-14T08:31:20;10.32;;;6.85;;
28431;SDS011;15664;51.302;7.744;2022-08-14T08:33:49;11.75;;;6.28;;
28431;SDS011;15664;51.302;7.744;2022-08-14T08:36:15;8.88;;;6.15;;
28431;SDS011;15664;51.302;7.744;2022-08-14T08:38:40;9.57;;;6.60;;
28431;SDS011;15664;51.302;7.744;2022-08-14T08:41:05;9.03;;;5.93;;
28431;SDS011;15664;51.302;7.744;2022-08-14T08:43:32;9.47;;;6.33;;
28431;SDS011;15664;51.302;7.744;2022-08-14T08:45:58;8.83;;;5.70;;
28431;SDS011;15664;51.302;7.744;2022-08-14T08:48:27;9.27;;;5.63;;
28431;SDS011;15664;51.302;7.744;2022-08-14T08:50:57;8.93;;;5.93;;
28431;SDS011;15664;51.302;7.744;2022-08-14T08:53:28;9.10;;;6.10;;
28431;SDS011;15664;51.302;7.744;2022-08-14T08:55:54;8.10;;;5.72;;
28431;SDS011;15664;51.302;7.744;2022-08-14T08:58:20;8.60;;;5.80;;
28431;SDS011;15664;51.302;7.744;2022-08-14T09:00:49;9.37;;;6.07;;
28431;SDS011;15664;51.302;7.744;2022-08-14T09:03:17;10.82;;;6.03;;
28431;SDS011;15664;51.302;7.744;2022-08-14T09:05:54;9.77;;;6.47;;
28431;SDS011;15664;51.302;7.744;2022-08-14T09:08:20;10.45;;;6.65;;
28431;SDS011;15664;51.302;7.744;2022-08-14T09:10:46;8.70;;;6.30;;
28431;SDS011;15664;51.302;7.744;2022-08-14T09:13:12;9.20;;;5.93;;
28431;SDS011;15664;51.302;7.744;2022-08-14T09:15:38;9.93;;;6.30;;
28431;SDS011;15664;51.302;7.744;2022-08-14T09:18:04;9.35;;;6.50;;
28431;SDS011;15664;51.302;7.744;2022-08-14T09:20:30;9.32;;;6.20;;
28431;SDS011;15664;51.302;7.744;2022-08-14T09:22:56;9.07;;;6.50;;
28431;SDS011;15664;51.302;7.744;2022-08-14T09:25:22;9.95;;;6.45;;
28431;SDS011;15664;51.302;7.744;2022-08-14T09:27:47;10.07;;;7.53;;
28431;SDS011;15664;51.302;7.744;2022-08-14T09:30:13;8.37;;;5.80;;
28431;SDS011;15664;51.302;7.744;2022-08-14T09:32:41;8.87;;;6.17;;
28431;SDS011;15664;51.302;7.744;2022-08-14T09:37:57;7.45;;;5.20;;
28431;SDS011;15664;51.302;7.744;2022-08-14T09:43:06;7.57;;;5.30;;
28431;SDS011;15664;51.302;7.744;2022-08-14T09:45:38;7.05;;;4.97;;
28431;SDS011;15664;51.302;7.744;2022-08-14T09:48:14;8.38;;;5.22;;
28431;SDS011;15664;51.302;7.744;2022-08-14T09:50:50;7.60;;;4.88;;
28431;SDS011;15664;51.302;7.744;2022-08-14T09:56:13;7.40;;;4.90;;
28431;SDS011;15664;51.302;7.744;2022-08-14T10:01:10;8.77;;;4.80;;
28431;SDS011;15664;51.302;7.744;2022-08-14T10:03:37;7.22;;;4.88;;
28431;SDS011;15664;51.302;7.744;2022-08-14T10:06:03;7.88;;;5.25;;
28431;SDS011;15664;51.302;7.744;2022-08-14T10:08:38;7.85;;;5.88;;
28431;SDS011;15664;51.302;7.744;2022-08-14T10:11:11;8.70;;;5.37;;
28431;SDS011;15664;51.302;7.744;2022-08-14T10:13:38;7.22;;;4.95;;
28431;SDS011;15664;51.302;7.744;2022-08-14T10:16:05;9.35;;;5.97;;
28431;SDS011;15664;51.302;7.744;2022-08-14T10:18:30;8.10;;;4.90;;
28431;SDS011;15664;51.302;7.744;2022-08-14T10:20:59;9.60;;;5.22;;
28431;SDS011;15664;51.302;7.744;2022-08-14T10:23:38;7.32;;;5.10;;
28431;SDS011;15664;51.302;7.744;2022-08-14T10:26:05;10.35;;;5.57;;
28431;SDS011;15664;51.302;7.744;2022-08-14T10:28:41;8.68;;;5.00;;
28431;SDS011;15664;51.302;7.744;2022-08-14T10:31:20;8.77;;;5.43;;
28431;SDS011;15664;51.302;7.744;2022-08-14T10:34:02;8.88;;;5.55;;
28431;SDS011;15664;51.302;7.744;2022-08-14T10:36:35;8.25;;;5.65;;
28431;SDS011;15664;51.302;7.744;2022-08-14T10:39:22;7.95;;;5.25;;
28431;SDS011;15664;51.302;7.744;2022-08-14T10:41:46;8.77;;;5.30;;
28431;SDS011;15664;51.302;7.744;2022-08-14T10:44:16;8.38;;;5.28;;
28431;SDS011;15664;51.302;7.744;2022-08-14T10:46:42;7.77;;;5.00;;
28431;SDS011;15664;51.302;7.744;2022-08-14T10:49:15;8.52;;;4.85;;
28431;SDS011;15664;51.302;7.744;2022-08-14T10:51:41;6.68;;;4.40;;
28431;SDS011;15664;51.302;7.744;2022-08-14T10:54:06;7.17;;;4.60;;
28431;SDS011;15664;51.302;7.744;2022-08-14T10:56:32;7.82;;;4.50;;
28431;SDS011;15664;51.302;7.744;2022-08-14T10:59:06;7.15;;;4.22;;
28431;SDS011;15664;51.302;7.744;2022-08-14T11:01:32;7.50;;;4.43;;
28431;SDS011;15664;51.302;7.744;2022-08-14T11:03:58;6.13;;;4.20;;
28431;SDS011;15664;51.302;7.744;2022-08-14T11:06:23;7.93;;;4.30;;
28431;SDS011;15664;51.302;7.744;2022-08-14T11:08:48;9.03;;;4.50;;
28431;SDS011;15664;51.302;7.744;2022-08-14T11:11:14;5.87;;;3.80;;
28431;SDS011;15664;51.302;7.744;2022-08-14T11:13:40;5.80;;;3.90;;
28431;SDS011;15664;51.302;7.744;2022-08-14T11:16:08;7.63;;;3.83;;
28431;SDS011;15664;51.302;7.744;2022-08-14T11:18:35;6.40;;;4.07;;
28431;SDS011;15664;51.302;7.744;2022-08-14T11:21:00;7.55;;;4.30;;
28431;SDS011;15664;51.302;7.744;2022-08-14T11:23:27;8.83;;;4.50;;
28431;SDS011;15664;51.302;7.744;2022-08-14T11:25:53;6.40;;;4.38;;
28431;SDS011;15664;51.302;7.744;2022-08-14T11:28:21;7.53;;;4.75;;
28431;SDS011;15664;51.302;7.744;2022-08-14T11:30:47;6.50;;;4.30;;
28431;SDS011;15664;51.302;7.744;2022-08-14T11:33:13;7.07;;;5.10;;
28431;SDS011;15664;51.302;7.744;2022-08-14T11:35:38;7.50;;;5.10;;
28431;SDS011;15664;51.302;7.744;2022-08-14T11:38:05;6.63;;;4.53;;
28431;SDS011;15664;51.302;7.744;2022-08-14T11:40:31;7.00;;;4.90;;
28431;SDS011;15664;51.302;7.744;2022-08-14T11:42:59;6.80;;;4.75;;
28431;SDS011;15664;51.302;7.744;2022-08-14T11:45:26;7.40;;;5.13;;
28431;SDS011;15664;51.302;7.744;2022-08-14T11:47:52;7.35;;;4.78;;
28431;SDS011;15664;51.302;7.744;2022-08-14T11:50:22;7.75;;;4.80;;
28431;SDS011;15664;51.302;7.744;2022-08-14T11:52:48;7.35;;;4.90;;
28431;SDS011;15664;51.302;7.744;2022-08-14T11:55:14;6.47;;;4.70;;
28431;SDS011;15664;51.302;7.744;2022-08-14T11:57:40;6.93;;;4.47;;
28431;SDS011;15664;51.302;7.744;2022-08-14T12:00:07;6.07;;;3.87;;
28431;SDS011;15664;51.302;7.744;2022-08-14T12:02:33;6.57;;;4.40;;
28431;SDS011;15664;51.302;7.744;2022-08-14T12:04:59;7.33;;;4.83;;
28431;SDS011;15664;51.302;7.744;2022-08-14T12:07:24;8.73;;;4.93;;
28431;SDS011;15664;51.302;7.744;2022-08-14T12:09:53;8.83;;;5.03;;
28431;SDS011;15664;51.302;7.744;2022-08-14T12:12:20;7.47;;;4.75;;
28431;SDS011;15664;51.302;7.744;2022-08-14T12:14:56;7.95;;;4.95;;
28431;SDS011;15664;51.302;7.744;2022-08-14T12:17:22;8.02;;;5.00;;
28431;SDS011;15664;51.302;7.744;2022-08-14T12:19:55;7.40;;;5.00;;
28431;SDS011;15664;51.302;7.744;2022-08-14T12:22:35;7.75;;;5.20;;
28431;SDS011;15664;51.302;7.744;2022-08-14T12:25:02;7.88;;;5.03;;
28431;SDS011;15664;51.302;7.744;2022-08-14T12:27:41;8.10;;;4.70;;
28431;SDS011;15664;51.302;7.744;2022-08-14T12:30:06;7.70;;;4.75;;
28431;SDS011;15664;51.302;7.744;2022-08-14T12:32:38;7.57;;;4.60;;
28431;SDS011;15664;51.302;7.744;2022-08-14T12:35:04;8.48;;;4.38;;
28431;SDS011;15664;51.302;7.744;2022-08-14T12:37:30;7.20;;;4.20;;
28431;SDS011;15664;51.302;7.744;2022-08-14T12:40:06;7.50;;;4.50;;
28431;SDS011;15664;51.302;7.744;2022-08-14T12:42:32;6.70;;;4.50;;
28431;SDS011;15664;51.302;7.744;2022-08-14T12:44:58;6.60;;;4.15;;
28431;SDS011;15664;51.302;7.744;2022-08-14T12:47:25;6.20;;;4.20;;
28431;SDS011;15664;51.302;7.744;2022-08-14T12:49:53;6.57;;;4.20;;
28431;SDS011;15664;51.302;7.744;2022-08-14T12:54:58;6.15;;;3.90;;
28431;SDS011;15664;51.302;7.744;2022-08-14T12:57:32;6.72;;;4.40;;
28431;SDS011;15664;51.302;7.744;2022-08-14T13:00:08;7.03;;;4.10;;
28431;SDS011;15664;51.302;7.744;2022-08-14T13:02:36;7.18;;;4.50;;
28431;SDS011;15664;51.302;7.744;2022-08-14T13:05:02;6.68;;;4.38;;
28431;SDS011;15664;51.302;7.744;2022-08-14T13:07:28;6.47;;;4.50;;
28431;SDS011;15664;51.302;7.744;2022-08-14T13:09:54;5.90;;;4.00;;
28431;SDS011;15664;51.302;7.744;2022-08-14T13:12:20;6.22;;;3.97;;
28431;SDS011;15664;51.302;7.744;2022-08-14T13:14:49;6.68;;;3.88;;
28431;SDS011;15664;51.302;7.744;2022-08-14T13:17:14;5.97;;;4.13;;
28431;SDS011;15664;51.302;7.744;2022-08-14T13:19:40;5.10;;;3.60;;
28431;SDS011;15664;51.302;7.744;2022-08-14T13:22:06;6.45;;;3.78;;
28431;SDS011;15664;51.302;7.744;2022-08-14T13:24:32;6.00;;;3.97;;
28431;SDS011;15664;51.302;7.744;2022-08-14T13:26:57;6.30;;;3.95;;
28431;SDS011;15664;51.302;7.744;2022-08-14T13:29:28;5.77;;;3.83;;
28431;SDS011;15664;51.302;7.744;2022-08-14T13:31:55;5.70;;;3.47;;
28431;SDS011;15664;51.302;7.744;2022-08-14T13:34:25;6.00;;;3.90;;
28431;SDS011;15664;51.302;7.744;2022-08-14T13:36:51;5.22;;;3.83;;
28431;SDS011;15664;51.302;7.744;2022-08-14T13:39:17;6.07;;;3.85;;
28431;SDS011;15664;51.302;7.744;2022-08-14T13:41:43;6.27;;;4.10;;
28431;SDS011;15664;51.302;7.744;2022-08-14T13:44:09;6.75;;;4.18;;
28431;SDS011;15664;51.302;7.744;2022-08-14T13:46:34;5.65;;;3.60;;
28431;SDS011;15664;51.302;7.744;2022-08-14T13:49:00;6.17;;;4.33;;
28431;SDS011;15664;51.302;7.744;2022-08-14T13:51:25;5.90;;;4.17;;
28431;SDS011;15664;51.302;7.744;2022-08-14T13:53:56;5.53;;;3.83;;
28431;SDS011;15664;51.302;7.744;2022-08-14T13:56:21;5.97;;;3.87;;
28431;SDS011;15664;51.302;7.744;2022-08-14T13:58:51;5.50;;;3.75;;
28431;SDS011;15664;51.302;7.744;2022-08-14T14:01:21;6.65;;;3.50;;
28431;SDS011;15664;51.302;7.744;2022-08-14T14:03:46;5.70;;;3.77;;
28431;SDS011;15664;51.302;7.744;2022-08-14T14:06:14;5.82;;;3.70;;
28431;SDS011;15664;51.302;7.744;2022-08-14T14:08:43;6.45;;;3.88;;
28431;SDS011;15664;51.302;7.744;2022-08-14T14:11:11;6.20;;;3.90;;
28431;SDS011;15664;51.302;7.744;2022-08-14T14:13:37;5.57;;;3.77;;
28431;SDS011;15664;51.302;7.744;2022-08-14T14:16:03;6.00;;;3.97;;
28431;SDS011;15664;51.302;7.744;2022-08-14T14:18:29;5.80;;;3.75;;
28431;SDS011;15664;51.302;7.744;2022-08-14T14:20:55;5.57;;;3.60;;
28431;SDS011;15664;51.302;7.744;2022-08-14T14:23:21;6.22;;;3.90;;
28431;SDS011;15664;51.302;7.744;2022-08-14T14:25:47;5.07;;;3.40;;
28431;SDS011;15664;51.302;7.744;2022-08-14T14:28:13;5.90;;;3.47;;
28431;SDS011;15664;51.302;7.744;2022-08-14T14:30:40;6.10;;;3.78;;
28431;SDS011;15664;51.302;7.744;2022-08-14T14:33:08;6.05;;;3.90;;
28431;SDS011;15664;51.302;7.744;2022-08-14T14:35:35;5.50;;;3.70;;
28431;SDS011;15664;51.302;7.744;2022-08-14T14:38:02;5.97;;;4.13;;
28431;SDS011;15664;51.302;7.744;2022-08-14T14:40:29;6.60;;;4.03;;
28431;SDS011;15664;51.302;7.744;2022-08-14T14:42:57;6.43;;;3.90;;
28431;SDS011;15664;51.302;7.744;2022-08-14T14:45:22;7.00;;;3.93;;
28431;SDS011;15664;51.302;7.744;2022-08-14T14:47:49;6.15;;;3.97;;
28431;SDS011;15664;51.302;7.744;2022-08-14T14:50:15;6.10;;;3.70;;
28431;SDS011;15664;51.302;7.744;2022-08-14T14:52:41;5.53;;;3.50;;
28431;SDS011;15664;51.302;7.744;2022-08-14T14:55:07;6.17;;;3.63;;
28431;SDS011;15664;51.302;7.744;2022-08-14T14:57:33;5.47;;;3.50;;